EGAE/LDY METAR and TAF weather

Enter ICAO airport designator
Station Type Date Time Source
EGAE METAR 2021/09/23 18:50 UTC NOAA

EGAE 231850Z 25012KT 9999 FEW017 14/12 Q1016


Station Type Date Time Source
EGAE Decoded METAR 2021/09/23 18:50 UTC NOAA

Eglinton / Londonderr, United Kingdom (EGAE) 55-03N 007-09W
Sep 23, 2021 - 02:50 PM EDT / 2021.09.23 1850 UTC
Wind: from the WSW (250 degrees) at 14 MPH (12 KT):0
Visibility: greater than 7 mile(s):0
Sky conditions: mostly clear
Temperature: 57 F (14 C)
Dew Point: 53 F (12 C)
Relative Humidity: 87%
Pressure (altimeter): 30.00 in. Hg (1016 hPa)
ob: EGAE 231850Z 25012KT 9999 FEW017 14/12 Q1016
cycle: 19

Station Type Date Time Source
EGAE TAF UTC NOAA

Error!

Example: see airport list